Language: 


Des rapports , des résumés tant et plus, au choix de chacun....


Données statistiques de la station
Quotidien Rapport Janvier 18, 2018 Unités:  les deux    Anglais   Métrique
« Précédent Jour
Suivant Jour »
Quotidien Hebdomadaire Mensuel Annuel Actuel
  Haut: Bas: Moyen:
Température: TemperatureC °F /  -17.8 °C 0.0 °F /  -17.8 °C 7.9 °F /  -13.4 °C
Pt de rosée: DewpointC °F /  -17.8 °C 1.0 °F /  -17.2 °C 4.7 °F /  -15.2 °C
Humidité: Humidity % 0 % 79 %
Vitesse du vent: WindSpeedKMH mph /  0 km/h - 20.3 mph /  32.7 km/h
Rafales: WindSpeedGustKMH mph /  0 km/h - -
Vent:- - WSW
Pression: PressurehPa in /  0 hPa 0.0 in /  0 hPa -
Précipitation: 0.0 in /  0 mm    
Historical Graphs
 
 
Données statistiques pour Janvier 18, 2018
Heure Température Point de rosée Pression Vent Vitesse du vent Refales Humidité Pluie (taux horaire)
TemperatureC °F /  -17.8 °C DewpointC °F /  -17.8 °C PressurehPa in /  0 hPa Calm     Humidity % HourlyPrecipMM in /  0 mm
00:04 6.2 °F /  -14.3 °C 3.0 °F /  -16.1 °C 1007.0 in /  34097 hPa WSW 13.7 mph /  22 km/h 23.0 mph /  37 km/h 81 % 0.0 in /  0 mm
00:09 6.2 °F /  -14.3 °C 3.0 °F /  -16.1 °C 1007.0 in /  34097 hPa SSW 17.7 mph /  28.5 km/h 17.7 mph /  28.5 km/h 81 % 0.0 in /  0 mm
00:14 6.3 °F /  -14.3 °C 3.0 °F /  -16.1 °C 1007.0 in /  34097 hPa SSW 17.2 mph /  27.7 km/h 17.7 mph /  28.5 km/h 81 % 0.0 in /  0 mm
00:19 6.3 °F /  -14.3 °C 4.0 °F /  -15.6 °C 1007.0 in /  34097 hPa SW 15.8 mph /  25.4 km/h 19.1 mph /  30.7 km/h 82 % 0.0 in /  0 mm
00:24 6.3 °F /  -14.3 °C 4.0 °F /  -15.6 °C 1007.0 in /  34097 hPa WSW 16.3 mph /  26.2 km/h 24.8 mph /  39.9 km/h 82 % 0.0 in /  0 mm
00:29 6.3 °F /  -14.3 °C 4.0 °F /  -15.6 °C 1006.0 in /  34063.2 hPa WSW 14.0 mph /  22.5 km/h 24.8 mph /  39.9 km/h 82 % 0.0 in /  0 mm
00:34 6.3 °F /  -14.3 °C 4.0 °F /  -15.6 °C 1006.0 in /  34063.2 hPa WSW 14.0 mph /  22.5 km/h 24.8 mph /  39.9 km/h 82 % 0.0 in /  0 mm
00:39 6.3 °F /  -14.3 °C 4.0 °F /  -15.6 °C 1006.0 in /  34063.2 hPa SW 15.8 mph /  25.4 km/h 17.2 mph /  27.7 km/h 82 % 0.0 in /  0 mm
00:44 6.3 °F /  -14.3 °C 4.0 °F /  -15.6 °C 1005.0 in /  34029.3 hPa SSW 12.2 mph /  19.6 km/h 17.2 mph /  27.7 km/h 82 % 0.0 in /  0 mm
00:49 6.3 °F /  -14.3 °C 4.0 °F /  -15.6 °C 1005.0 in /  34029.3 hPa SSW 13.7 mph /  22 km/h 16.6 mph /  26.7 km/h 82 % 0.3 in /  7.62 mm
00:54 6.3 °F /  -14.3 °C 4.0 °F /  -15.6 °C 1005.0 in /  34029.3 hPa SSW 10.5 mph /  16.9 km/h 16.3 mph /  26.2 km/h 82 % 0.3 in /  7.62 mm
00:59 6.3 °F /  -14.3 °C 4.0 °F /  -15.6 °C 1003.9 in /  33992.1 hPa WSW 11.6 mph /  18.7 km/h 16.6 mph /  26.7 km/h 82 % 0.3 in /  7.62 mm
01:04 6.3 °F /  -14.3 °C 4.0 °F /  -15.6 °C 1003.9 in /  33992.1 hPa SSW 11.6 mph /  18.7 km/h 16.6 mph /  26.7 km/h 82 % 0.5 in /  12.7 mm
01:09 6.3 °F /  -14.3 °C 4.0 °F /  -15.6 °C 1003.9 in /  33992.1 hPa SSW 9.3 mph /  15 km/h 16.3 mph /  26.2 km/h 82 % 0.5 in /  12.7 mm
01:14 6.3 °F /  -14.3 °C 4.0 °F /  -15.6 °C 1005.0 in /  34029.3 hPa SSW 12.2 mph /  19.6 km/h 16.6 mph /  26.7 km/h 82 % 0.5 in /  12.7 mm
01:19 6.3 °F /  -14.3 °C 4.0 °F /  -15.6 °C 1005.0 in /  34029.3 hPa SSW 6.4 mph /  10.3 km/h 17.7 mph /  28.5 km/h 82 % 0.5 in /  12.7 mm
01:24 6.3 °F /  -14.3 °C 4.0 °F /  -15.6 °C 1005.0 in /  34029.3 hPa SW 13.7 mph /  22 km/h 19.1 mph /  30.7 km/h 82 % 0.5 in /  12.7 mm
01:29 6.3 °F /  -14.3 °C 4.0 °F /  -15.6 °C 1002.9 in /  33958.2 hPa SW 9.7 mph /  15.6 km/h 19.1 mph /  30.7 km/h 82 % 0.5 in /  12.7 mm
01:35 6.3 °F /  -14.3 °C 4.0 °F /  -15.6 °C 1002.9 in /  33958.2 hPa SSW 16.3 mph /  26.2 km/h 19.5 mph /  31.4 km/h 82 % 0.5 in /  12.7 mm
01:40 6.3 °F /  -14.3 °C 4.0 °F /  -15.6 °C 1002.9 in /  33958.2 hPa SW 17.2 mph /  27.7 km/h 23.3 mph /  37.5 km/h 82 % 0.5 in /  12.7 mm
01:45 5.6 °F /  -14.7 °C 6.0 °F /  -14.4 °C 1002.9 in /  33958.2 hPa South 19.5 mph /  31.4 km/h 27.7 mph /  44.6 km/h 98 % 0.3 in /  7.62 mm
01:50 5.6 °F /  -14.7 °C 6.0 °F /  -14.4 °C 1002.9 in /  33958.2 hPa SSW 15.8 mph /  25.4 km/h 27.7 mph /  44.6 km/h 98 % 0.5 in /  12.7 mm
01:55 5.6 °F /  -14.7 °C 6.0 °F /  -14.4 °C 1002.9 in /  33958.2 hPa SSW 19.5 mph /  31.4 km/h 26.2 mph /  42.2 km/h 98 % 0.5 in /  12.7 mm
02:00 5.7 °F /  -14.6 °C 6.0 °F /  -14.4 °C 1001.9 in /  33924.3 hPa SW 23.8 mph /  38.3 km/h 30.6 mph /  49.2 km/h 98 % 0.5 in /  12.7 mm
02:05 5.7 °F /  -14.6 °C 6.0 °F /  -14.4 °C 1001.9 in /  33924.3 hPa SSW 21.2 mph /  34.1 km/h 30.6 mph /  49.2 km/h 98 % 0.5 in /  12.7 mm
02:10 5.7 °F /  -14.6 °C 6.0 °F /  -14.4 °C 1001.9 in /  33924.3 hPa SSW 19.5 mph /  31.4 km/h 33.5 mph /  53.9 km/h 98 % 0.8 in /  20.32 mm
02:15 5.7 °F /  -14.6 °C 6.0 °F /  -14.4 °C 999.9 in /  33856.6 hPa SSW 25.3 mph /  40.7 km/h 33.5 mph /  53.9 km/h 98 % 1.3 in /  33.02 mm
02:20 5.7 °F /  -14.6 °C 6.0 °F /  -14.4 °C 999.9 in /  33856.6 hPa SSW 24.5 mph /  39.4 km/h 28.5 mph /  45.9 km/h 98 % 1.3 in /  33.02 mm
02:25 5.7 °F /  -14.6 °C 6.0 °F /  -14.4 °C 999.9 in /  33856.6 hPa WSW 20.6 mph /  33.2 km/h 31.4 mph /  50.5 km/h 98 % 1.5 in /  38.1 mm
02:30 5.7 °F /  -14.6 °C 6.0 °F /  -14.4 °C 1000.9 in /  33890.5 hPa SSW 17.7 mph /  28.5 km/h 31.4 mph /  50.5 km/h 98 % 1.8 in /  45.72 mm
02:35 5.7 °F /  -14.6 °C 6.0 °F /  -14.4 °C 1000.9 in /  33890.5 hPa WSW 17.2 mph /  27.7 km/h 31.7 mph /  51 km/h 98 % 2.3 in /  58.42 mm
02:40 5.7 °F /  -14.6 °C 6.0 °F /  -14.4 °C 1000.9 in /  33890.5 hPa SSW 26.7 mph /  43 km/h 32.3 mph /  52 km/h 98 % 2.3 in /  58.42 mm
02:45 5.7 °F /  -14.6 °C 6.0 °F /  -14.4 °C 998.9 in /  33822.8 hPa SW 17.2 mph /  27.7 km/h 32.3 mph /  52 km/h 98 % 2.3 in /  58.42 mm
02:50 5.8 °F /  -14.6 °C 6.0 °F /  -14.4 °C 998.9 in /  33822.8 hPa SW 25.3 mph /  40.7 km/h 27.7 mph /  44.6 km/h 98 % 2.3 in /  58.42 mm
02:55 5.8 °F /  -14.6 °C 6.0 °F /  -14.4 °C 998.9 in /  33822.8 hPa SSW 17.2 mph /  27.7 km/h 27.7 mph /  44.6 km/h 98 % 2.3 in /  58.42 mm
03:00 5.8 °F /  -14.6 °C 6.0 °F /  -14.4 °C 998.9 in /  33822.8 hPa SSW 24.5 mph /  39.4 km/h 27.7 mph /  44.6 km/h 98 % 1.8 in /  45.72 mm
03:05 5.8 °F /  -14.6 °C 6.0 °F /  -14.4 °C 998.9 in /  33822.8 hPa SSW 28.8 mph /  46.3 km/h 31.4 mph /  50.5 km/h 98 % 1.8 in /  45.72 mm
03:10 5.8 °F /  -14.6 °C 6.0 °F /  -14.4 °C 998.9 in /  33822.8 hPa WSW 17.7 mph /  28.5 km/h 31.4 mph /  50.5 km/h 98 % 1.5 in /  38.1 mm
03:15 5.9 °F /  -14.5 °C 6.0 °F /  -14.4 °C 997.9 in /  33788.9 hPa SSW 12.6 mph /  20.3 km/h 26.7 mph /  43 km/h 98 % 1.3 in /  33.02 mm
03:20 5.8 °F /  -14.6 °C 6.0 °F /  -14.4 °C 997.9 in /  33788.9 hPa SW 20.9 mph /  33.6 km/h 24.5 mph /  39.4 km/h 98 % 0.8 in /  20.32 mm
03:25 6.0 °F /  -14.4 °C 6.0 °F /  -14.4 °C 997.9 in /  33788.9 hPa SW 23.3 mph /  37.5 km/h 28.5 mph /  45.9 km/h 98 % 0.5 in /  12.7 mm
03:30 6.0 °F /  -14.4 °C 6.0 °F /  -14.4 °C 996.8 in /  33751.6 hPa SSW 21.6 mph /  34.8 km/h 28.8 mph /  46.3 km/h 98 % 0.5 in /  12.7 mm
03:35 6.1 °F /  -14.4 °C 6.0 °F /  -14.4 °C 996.8 in /  33751.6 hPa WSW 19.8 mph /  31.9 km/h 28.8 mph /  46.3 km/h 98 % 0.3 in /  7.62 mm
03:40 6.1 °F /  -14.4 °C 6.0 °F /  -14.4 °C 996.8 in /  33751.6 hPa South 12.6 mph /  20.3 km/h 28.5 mph /  45.9 km/h 98 % 0.3 in /  7.62 mm
03:45 6.3 °F /  -14.3 °C 6.0 °F /  -14.4 °C 996.8 in /  33751.6 hPa SW 16.3 mph /  26.2 km/h 31.4 mph /  50.5 km/h 98 % 0.3 in /  7.62 mm
03:50 6.3 °F /  -14.3 °C 6.0 °F /  -14.4 °C 996.8 in /  33751.6 hPa SW 28.0 mph /  45.1 km/h 31.4 mph /  50.5 km/h 98 % 0.0 in /  0 mm
03:55 6.5 °F /  -14.2 °C 7.0 °F /  -13.9 °C 996.8 in /  33751.6 hPa SW 20.1 mph /  32.3 km/h 32.0 mph /  51.5 km/h 98 % 0.0 in /  0 mm
04:00 6.5 °F /  -14.2 °C 7.0 °F /  -13.9 °C 996.8 in /  33751.6 hPa SW 21.2 mph /  34.1 km/h 32.0 mph /  51.5 km/h 98 % 0.0 in /  0 mm
04:05 6.7 °F /  -14.1 °C 7.0 °F /  -13.9 °C 996.8 in /  33751.6 hPa SSW 21.2 mph /  34.1 km/h 37.0 mph /  59.5 km/h 98 % 0.0 in /  0 mm
04:10 6.8 °F /  -14 °C 7.0 °F /  -13.9 °C 996.8 in /  33751.6 hPa WSW 20.9 mph /  33.6 km/h 37.0 mph /  59.5 km/h 98 % 0.0 in /  0 mm
04:15 7.0 °F /  -13.9 °C 7.0 °F /  -13.9 °C 996.2 in /  33731.3 hPa WSW 28.5 mph /  45.9 km/h 30.2 mph /  48.6 km/h 98 % 0.0 in /  0 mm
04:21 7.1 °F /  -13.8 °C 7.0 °F /  -13.9 °C 996.2 in /  33731.3 hPa WSW 24.5 mph /  39.4 km/h 32.0 mph /  51.5 km/h 98 % 0.0 in /  0 mm
04:26 7.2 °F /  -13.8 °C 7.0 °F /  -13.9 °C 996.2 in /  33731.3 hPa WSW 20.1 mph /  32.3 km/h 32.0 mph /  51.5 km/h 98 % 0.0 in /  0 mm
04:31 7.4 °F /  -13.7 °C 7.0 °F /  -13.9 °C 996.2 in /  33731.3 hPa WSW 24.5 mph /  39.4 km/h 37.8 mph /  60.8 km/h 98 % 0.0 in /  0 mm
04:36 7.5 °F /  -13.6 °C 8.0 °F /  -13.3 °C 996.2 in /  33731.3 hPa WSW 25.6 mph /  41.2 km/h 37.8 mph /  60.8 km/h 98 % 0.0 in /  0 mm
04:41 7.9 °F /  -13.4 °C 8.0 °F /  -13.3 °C 995.1 in /  33694.1 hPa SW 28.0 mph /  45.1 km/h 38.1 mph /  61.3 km/h 98 % 0.3 in /  7.62 mm
04:46 8.0 °F /  -13.3 °C 8.0 °F /  -13.3 °C 995.1 in /  33694.1 hPa WSW 36.4 mph /  58.6 km/h 43.6 mph /  70.2 km/h 98 % 0.3 in /  7.62 mm
04:51 8.2 °F /  -13.2 °C 8.0 °F /  -13.3 °C 995.1 in /  33694.1 hPa WSW 24.8 mph /  39.9 km/h 43.6 mph /  70.2 km/h 98 % 0.3 in /  7.62 mm
04:56 8.5 °F /  -13.1 °C 9.0 °F /  -12.8 °C 994.1 in /  33660.2 hPa WSW 36.0 mph /  57.9 km/h 43.9 mph /  70.6 km/h 98 % 0.3 in /  7.62 mm
05:01 8.6 °F /  -13 °C 9.0 °F /  -12.8 °C 994.1 in /  33660.2 hPa WSW 37.5 mph /  60.3 km/h 44.2 mph /  71.1 km/h 98 % 0.3 in /  7.62 mm
05:06 8.7 °F /  -12.9 °C 9.0 °F /  -12.8 °C 994.1 in /  33660.2 hPa West 30.9 mph /  49.7 km/h 50.0 mph /  80.5 km/h 98 % 0.3 in /  7.62 mm
05:11 8.9 °F /  -12.8 °C 9.0 °F /  -12.8 °C 994.1 in /  33660.2 hPa West 50.0 mph /  80.5 km/h 52.6 mph /  84.6 km/h 98 % 0.3 in /  7.62 mm
05:16 8.9 °F /  -12.8 °C 9.0 °F /  -12.8 °C 994.1 in /  33660.2 hPa WSW 50.4 mph /  81.1 km/h 52.6 mph /  84.6 km/h 98 % 0.3 in /  7.62 mm
05:21 8.9 °F /  -12.8 °C 9.0 °F /  -12.8 °C 994.1 in /  33660.2 hPa WSW 48.6 mph /  78.2 km/h 64.8 mph /  104.3 km/h 98 % 0.3 in /  7.62 mm
05:26 9.4 °F /  -12.6 °C 9.0 °F /  -12.8 °C 993.1 in /  33626.4 hPa WSW 41.4 mph /  66.6 km/h 64.8 mph /  104.3 km/h 98 % 0.3 in /  7.62 mm
05:31 9.4 °F /  -12.6 °C 9.0 °F /  -12.8 °C 993.1 in /  33626.4 hPa WSW 50.0 mph /  80.5 km/h 55.0 mph /  88.5 km/h 98 % 0.3 in /  7.62 mm
05:36 9.6 °F /  -12.4 °C 10.0 °F /  -12.2 °C 993.1 in /  33626.4 hPa WSW 42.2 mph /  67.9 km/h 72.4 mph /  116.5 km/h 98 % 0.0 in /  0 mm
05:41 9.6 °F /  -12.4 °C 10.0 °F /  -12.2 °C 993.1 in /  33626.4 hPa WSW 59.4 mph /  95.6 km/h 72.4 mph /  116.5 km/h 98 % 0.0 in /  0 mm
05:46 9.6 °F /  -12.4 °C 10.0 °F /  -12.2 °C 993.1 in /  33626.4 hPa WSW 41.0 mph /  66 km/h 59.7 mph /  96.1 km/h 98 % 0.0 in /  0 mm
05:51 9.6 °F /  -12.4 °C 10.0 °F /  -12.2 °C 993.1 in /  33626.4 hPa WSW 36.4 mph /  58.6 km/h 64.0 mph /  103 km/h 98 % 0.0 in /  0 mm
05:56 9.6 °F /  -12.4 °C 10.0 °F /  -12.2 °C 993.1 in /  33626.4 hPa WSW 44.6 mph /  71.8 km/h 64.0 mph /  103 km/h 98 % 0.0 in /  0 mm
06:01 9.6 °F /  -12.4 °C 10.0 °F /  -12.2 °C 993.1 in /  33626.4 hPa WSW 40.4 mph /  65 km/h 53.3 mph /  85.8 km/h 98 % 0.0 in /  0 mm
06:06 9.6 °F /  -12.4 °C 10.0 °F /  -12.2 °C 993.1 in /  33626.4 hPa WSW 52.6 mph /  84.6 km/h 52.6 mph /  84.6 km/h 98 % 0.0 in /  0 mm
06:11 9.6 °F /  -12.4 °C 10.0 °F /  -12.2 °C 992.1 in /  33592.5 hPa West 51.8 mph /  83.4 km/h 57.6 mph /  92.7 km/h 98 % 0.0 in /  0 mm
06:16 9.6 °F /  -12.4 °C 10.0 °F /  -12.2 °C 992.1 in /  33592.5 hPa WSW 36.7 mph /  59.1 km/h 60.5 mph /  97.4 km/h 98 % 0.0 in /  0 mm
06:21 9.6 °F /  -12.4 °C 10.0 °F /  -12.2 °C 992.1 in /  33592.5 hPa West 47.9 mph /  77.1 km/h 60.5 mph /  97.4 km/h 98 % 0.0 in /  0 mm
06:26 9.6 °F /  -12.4 °C 10.0 °F /  -12.2 °C 993.1 in /  33626.4 hPa West 43.1 mph /  69.4 km/h 54.7 mph /  88 km/h 98 % 0.0 in /  0 mm
06:32 9.6 °F /  -12.4 °C 10.0 °F /  -12.2 °C 993.1 in /  33626.4 hPa West 49.2 mph /  79.2 km/h 56.5 mph /  90.9 km/h 98 % 0.0 in /  0 mm
06:37 9.6 °F /  -12.4 °C 10.0 °F /  -12.2 °C 993.1 in /  33626.4 hPa West 59.7 mph /  96.1 km/h 59.7 mph /  96.1 km/h 98 % 0.0 in /  0 mm
06:42 11.1 °F /  -11.6 °C 10.0 °F /  -12.2 °C 992.1 in /  33592.5 hPa WSW 48.9 mph /  78.7 km/h 59.7 mph /  96.1 km/h 91 % 0.0 in /  0 mm
06:47 11.1 °F /  -11.6 °C 10.0 °F /  -12.2 °C 992.1 in /  33592.5 hPa WSW 52.6 mph /  84.6 km/h 66.3 mph /  106.7 km/h 91 % 0.0 in /  0 mm
06:52 11.1 °F /  -11.6 °C 10.0 °F /  -12.2 °C 992.1 in /  33592.5 hPa WSW 53.6 mph /  86.3 km/h 66.3 mph /  106.7 km/h 91 % 0.0 in /  0 mm
06:57 11.1 °F /  -11.6 °C 9.0 °F /  -12.8 °C 992.1 in /  33592.5 hPa WSW 39.3 mph /  63.2 km/h 64.4 mph /  103.6 km/h 90 % 0.0 in /  0 mm
07:02 11.2 °F /  -11.6 °C 10.0 °F /  -12.2 °C 992.1 in /  33592.5 hPa WSW 51.8 mph /  83.4 km/h 64.0 mph /  103 km/h 90 % 0.0 in /  0 mm
07:07 11.3 °F /  -11.5 °C 9.0 °F /  -12.8 °C 992.1 in /  33592.5 hPa West 55.3 mph /  89 km/h 64.0 mph /  103 km/h 88 % 0.0 in /  0 mm
07:12 11.4 °F /  -11.4 °C 9.0 °F /  -12.8 °C 992.1 in /  33592.5 hPa WSW 53.6 mph /  86.3 km/h 66.9 mph /  107.7 km/h 86 % 0.0 in /  0 mm
07:17 11.5 °F /  -11.4 °C 9.0 °F /  -12.8 °C 992.1 in /  33592.5 hPa West 48.6 mph /  78.2 km/h 66.9 mph /  107.7 km/h 85 % 0.0 in /  0 mm
07:22 11.6 °F /  -11.3 °C 9.0 °F /  -12.8 °C 992.1 in /  33592.5 hPa WNW 39.3 mph /  63.2 km/h 62.6 mph /  100.7 km/h 82 % 0.0 in /  0 mm
07:27 11.7 °F /  -11.3 °C 8.0 °F /  -13.3 °C 993.1 in /  33626.4 hPa WSW 42.2 mph /  67.9 km/h 91.4 mph /  147.1 km/h 79 % 0.0 in /  0 mm
07:32 11.8 °F /  -11.2 °C 8.0 °F /  -13.3 °C 993.1 in /  33626.4 hPa WSW 65.8 mph /  105.9 km/h 91.4 mph /  147.1 km/h 76 % 0.0 in /  0 mm
07:37 11.8 °F /  -11.2 °C 8.0 °F /  -13.3 °C 993.1 in /  33626.4 hPa WSW 50.0 mph /  80.5 km/h 83.2 mph /  133.9 km/h 77 % 0.0 in /  0 mm
07:42 11.8 °F /  -11.2 °C 8.0 °F /  -13.3 °C 993.1 in /  33626.4 hPa West 52.9 mph /  85.1 km/h 77.7 mph /  125 km/h 76 % 0.0 in /  0 mm
07:47 11.8 °F /  -11.2 °C 8.0 °F /  -13.3 °C 993.1 in /  33626.4 hPa West 62.3 mph /  100.3 km/h 77.7 mph /  125 km/h 76 % 0.0 in /  0 mm
07:52 11.7 °F /  -11.3 °C 7.0 °F /  -13.9 °C 993.1 in /  33626.4 hPa West 66.9 mph /  107.7 km/h 80.3 mph /  129.2 km/h 74 % 0.0 in /  0 mm
07:57 11.7 °F /  -11.3 °C 7.0 °F /  -13.9 °C 993.1 in /  33626.4 hPa West 44.2 mph /  71.1 km/h 80.3 mph /  129.2 km/h 73 % 0.0 in /  0 mm
08:02 11.6 °F /  -11.3 °C 7.0 °F /  -13.9 °C 993.1 in /  33626.4 hPa West 57.6 mph /  92.7 km/h 83.8 mph /  134.9 km/h 73 % 0.0 in /  0 mm
08:07 11.5 °F /  -11.4 °C 7.0 °F /  -13.9 °C 993.1 in /  33626.4 hPa SW 43.9 mph /  70.6 km/h 83.8 mph /  134.9 km/h 72 % 0.0 in /  0 mm
08:12 11.5 °F /  -11.4 °C 7.0 °F /  -13.9 °C 994.1 in /  33660.2 hPa West 56.5 mph /  90.9 km/h 78.8 mph /  126.8 km/h 72 % 0.0 in /  0 mm
08:17 11.4 °F /  -11.4 °C 7.0 °F /  -13.9 °C 994.1 in /  33660.2 hPa West 53.6 mph /  86.3 km/h 78.8 mph /  126.8 km/h 72 % 0.0 in /  0 mm
08:22 11.2 °F /  -11.6 °C 7.0 °F /  -13.9 °C 994.1 in /  33660.2 hPa West 57.3 mph /  92.2 km/h 73.9 mph /  118.9 km/h 72 % 0.0 in /  0 mm
08:27 11.1 °F /  -11.6 °C 6.0 °F /  -14.4 °C 994.1 in /  33660.2 hPa West 57.3 mph /  92.2 km/h 57.6 mph /  92.7 km/h 70 % 0.0 in /  0 mm
08:32 11.0 °F /  -11.7 °C 6.0 °F /  -14.4 °C 994.1 in /  33660.2 hPa West 46.0 mph /  74 km/h 64.4 mph /  103.6 km/h 70 % 0.0 in /  0 mm
08:37 10.9 °F /  -11.7 °C 6.0 °F /  -14.4 °C 994.1 in /  33660.2 hPa West 41.0 mph /  66 km/h 64.4 mph /  103.6 km/h 71 % 0.0 in /  0 mm
08:42 10.8 °F /  -11.8 °C 6.0 °F /  -14.4 °C 995.1 in /  33694.1 hPa West 28.0 mph /  45.1 km/h 63.4 mph /  102 km/h 72 % 0.0 in /  0 mm
08:47 10.7 °F /  -11.8 °C 6.0 °F /  -14.4 °C 995.1 in /  33694.1 hPa SW 42.5 mph /  68.4 km/h 55.0 mph /  88.5 km/h 70 % 0.0 in /  0 mm
08:52 10.6 °F /  -11.9 °C 6.0 °F /  -14.4 °C 995.1 in /  33694.1 hPa West 45.7 mph /  73.5 km/h 52.9 mph /  85.1 km/h 70 % 0.0 in /  0 mm
08:57 10.6 °F /  -11.9 °C 5.0 °F /  -15 °C 996.2 in /  33731.3 hPa West 35.6 mph /  57.3 km/h 51.8 mph /  83.4 km/h 69 % 0.0 in /  0 mm
09:02 10.3 °F /  -12.1 °C 5.0 °F /  -15 °C 996.2 in /  33731.3 hPa WSW 21.2 mph /  34.1 km/h 51.8 mph /  83.4 km/h 68 % 0.0 in /  0 mm
09:07 10.2 °F /  -12.1 °C 5.0 °F /  -15 °C 996.2 in /  33731.3 hPa West 55.0 mph /  88.5 km/h 55.0 mph /  88.5 km/h 67 % 0.0 in /  0 mm
09:12 10.1 °F /  -12.2 °C 4.0 °F /  -15.6 °C 996.8 in /  33751.6 hPa SW 35.2 mph /  56.6 km/h 56.5 mph /  90.9 km/h 64 % 0.0 in /  0 mm
09:18 9.9 °F /  -12.3 °C 3.0 °F /  -16.1 °C 996.8 in /  33751.6 hPa West 23.3 mph /  37.5 km/h 56.5 mph /  90.9 km/h 63 % 0.0 in /  0 mm
09:23 9.9 °F /  -12.3 °C 3.0 °F /  -16.1 °C 996.8 in /  33751.6 hPa West 33.8 mph /  54.4 km/h 52.1 mph /  83.8 km/h 62 % 0.0 in /  0 mm
09:28 9.8 °F /  -12.3 °C 3.0 °F /  -16.1 °C 996.8 in /  33751.6 hPa West 24.5 mph /  39.4 km/h 57.6 mph /  92.7 km/h 61 % 0.0 in /  0 mm
09:33 9.8 °F /  -12.3 °C 3.0 °F /  -16.1 °C 996.8 in /  33751.6 hPa WNW 38.9 mph /  62.6 km/h 57.6 mph /  92.7 km/h 62 % 0.0 in /  0 mm
09:38 9.7 °F /  -12.4 °C 3.0 °F /  -16.1 °C 996.8 in /  33751.6 hPa West 28.5 mph /  45.9 km/h 48.6 mph /  78.2 km/h 63 % 0.0 in /  0 mm
09:43 9.6 °F /  -12.4 °C 3.0 °F /  -16.1 °C 996.8 in /  33751.6 hPa West 37.0 mph /  59.5 km/h 48.6 mph /  78.2 km/h 62 % 0.0 in /  0 mm
09:48 9.7 °F /  -12.4 °C 3.0 °F /  -16.1 °C 996.8 in /  33751.6 hPa WNW 37.8 mph /  60.8 km/h 52.9 mph /  85.1 km/h 62 % 0.0 in /  0 mm
09:53 9.6 °F /  -12.4 °C 3.0 °F /  -16.1 °C 996.8 in /  33751.6 hPa WSW 37.5 mph /  60.3 km/h 52.9 mph /  85.1 km/h 63 % 0.0 in /  0 mm
09:58 9.5 °F /  -12.5 °C 3.0 °F /  -16.1 °C 997.9 in /  33788.9 hPa South 25.3 mph /  40.7 km/h 42.2 mph /  67.9 km/h 64 % 0.0 in /  0 mm
10:03 9.6 °F /  -12.4 °C 3.0 °F /  -16.1 °C 997.9 in /  33788.9 hPa West 41.4 mph /  66.6 km/h 48.6 mph /  78.2 km/h 63 % 0.0 in /  0 mm
10:08 9.6 °F /  -12.4 °C 3.0 °F /  -16.1 °C 997.9 in /  33788.9 hPa West 21.6 mph /  34.8 km/h 48.6 mph /  78.2 km/h 64 % 0.0 in /  0 mm
10:13 9.6 °F /  -12.4 °C 4.0 °F /  -15.6 °C 998.9 in /  33822.8 hPa West 34.3 mph /  55.2 km/h 47.1 mph /  75.8 km/h 65 % 0.0 in /  0 mm
10:18 9.7 °F /  -12.4 °C 3.0 °F /  -16.1 °C 998.9 in /  33822.8 hPa WSW 24.5 mph /  39.4 km/h 42.2 mph /  67.9 km/h 64 % 0.0 in /  0 mm
10:23 9.7 °F /  -12.4 °C 3.0 °F /  -16.1 °C 998.9 in /  33822.8 hPa WSW 29.9 mph /  48.1 km/h 40.4 mph /  65 km/h 64 % 0.0 in /  0 mm
10:28 9.7 °F /  -12.4 °C 4.0 °F /  -15.6 °C 998.9 in /  33822.8 hPa West 17.7 mph /  28.5 km/h 40.7 mph /  65.5 km/h 65 % 0.0 in /  0 mm
10:33 9.7 °F /  -12.4 °C 4.0 °F /  -15.6 °C 998.9 in /  33822.8 hPa NNE 27.0 mph /  43.5 km/h 40.7 mph /  65.5 km/h 66 % 0.0 in /  0 mm
10:38 9.8 °F /  -12.3 °C 4.0 °F /  -15.6 °C 998.9 in /  33822.8 hPa NW 14.0 mph /  22.5 km/h 36.0 mph /  57.9 km/h 65 % 0.0 in /  0 mm
10:43 9.8 °F /  -12.3 °C 3.0 °F /  -16.1 °C 999.9 in /  33856.6 hPa SSW 15.8 mph /  25.4 km/h 27.0 mph /  43.5 km/h 64 % 0.0 in /  0 mm
10:48 9.8 °F /  -12.3 °C 3.0 °F /  -16.1 °C 999.9 in /  33856.6 hPa West 17.7 mph /  28.5 km/h 32.3 mph /  52 km/h 63 % 0.0 in /  0 mm
10:53 9.8 °F /  -12.3 °C 3.0 °F /  -16.1 °C 999.9 in /  33856.6 hPa WNW 23.3 mph /  37.5 km/h 32.3 mph /  52 km/h 62 % 0.0 in /  0 mm
10:58 9.8 °F /  -12.3 °C 3.0 °F /  -16.1 °C 999.9 in /  33856.6 hPa WSW 17.2 mph /  27.7 km/h 38.5 mph /  62 km/h 61 % 0.0 in /  0 mm
11:03 9.9 °F /  -12.3 °C 3.0 °F /  -16.1 °C 999.9 in /  33856.6 hPa WSW 20.9 mph /  33.6 km/h 38.5 mph /  62 km/h 59 % 0.0 in /  0 mm
11:08 9.7 °F /  -12.4 °C 3.0 °F /  -16.1 °C 999.9 in /  33856.6 hPa WNW 19.8 mph /  31.9 km/h 25.6 mph /  41.2 km/h 61 % 0.0 in /  0 mm
11:13 9.7 °F /  -12.4 °C 3.0 °F /  -16.1 °C 1000.9 in /  33890.5 hPa WNW 16.9 mph /  27.2 km/h 25.6 mph /  41.2 km/h 61 % 0.0 in /  0 mm
11:18 9.7 °F /  -12.4 °C 3.0 °F /  -16.1 °C 1000.9 in /  33890.5 hPa WSW 15.8 mph /  25.4 km/h 24.8 mph /  39.9 km/h 61 % 0.0 in /  0 mm
11:23 9.6 °F /  -12.4 °C 3.0 °F /  -16.1 °C 1000.9 in /  33890.5 hPa WNW 14.8 mph /  23.8 km/h 25.9 mph /  41.7 km/h 60 % 0.0 in /  0 mm
11:28 9.6 °F /  -12.4 °C 2.0 °F /  -16.7 °C 1000.9 in /  33890.5 hPa West 9.0 mph /  14.5 km/h 33.5 mph /  53.9 km/h 59 % 0.0 in /  0 mm
11:33 9.6 °F /  -12.4 °C 2.0 °F /  -16.7 °C 1000.9 in /  33890.5 hPa North 17.7 mph /  28.5 km/h 33.5 mph /  53.9 km/h 58 % 0.0 in /  0 mm
11:38 9.5 °F /  -12.5 °C 2.0 °F /  -16.7 °C 1000.9 in /  33890.5 hPa West 6.4 mph /  10.3 km/h 32.3 mph /  52 km/h 59 % 0.0 in /  0 mm
11:43 9.5 °F /  -12.5 °C 2.0 °F /  -16.7 °C 1000.9 in /  33890.5 hPa WSW 16.6 mph /  26.7 km/h 29.9 mph /  48.1 km/h 58 % 0.0 in /  0 mm
11:49 9.4 °F /  -12.6 °C 2.0 °F /  -16.7 °C 1000.9 in /  33890.5 hPa WSW 12.6 mph /  20.3 km/h 37.0 mph /  59.5 km/h 58 % 0.0 in /  0 mm
11:54 9.4 °F /  -12.6 °C 1.0 °F /  -17.2 °C 1000.9 in /  33890.5 hPa WNW 20.9 mph /  33.6 km/h 37.0 mph /  59.5 km/h 57 % 0.0 in /  0 mm
11:59 9.4 °F /  -12.6 °C 2.0 °F /  -16.7 °C 1000.9 in /  33890.5 hPa West 16.3 mph /  26.2 km/h 36.0 mph /  57.9 km/h 58 % 0.0 in /  0 mm
12:04 9.4 °F /  -12.6 °C 2.0 °F /  -16.7 °C 1000.9 in /  33890.5 hPa West 15.4 mph /  24.8 km/h 36.0 mph /  57.9 km/h 59 % 0.0 in /  0 mm
12:09 9.4 °F /  -12.6 °C 2.0 °F /  -16.7 °C 1000.9 in /  33890.5 hPa West 13.7 mph /  22 km/h 28.0 mph /  45.1 km/h 59 % 0.0 in /  0 mm
12:14 9.3 °F /  -12.6 °C 2.0 °F /  -16.7 °C 1001.9 in /  33924.3 hPa West 5.0 mph /  8 km/h 27.0 mph /  43.5 km/h 60 % 0.0 in /  0 mm
12:19 9.3 °F /  -12.6 °C 2.0 °F /  -16.7 °C 1001.9 in /  33924.3 hPa West 8.7 mph /  14 km/h 28.5 mph /  45.9 km/h 60 % 0.0 in /  0 mm
12:24 9.2 °F /  -12.7 °C 2.0 °F /  -16.7 °C 1001.9 in /  33924.3 hPa WNW 19.8 mph /  31.9 km/h 28.5 mph /  45.9 km/h 60 % 0.0 in /  0 mm
12:29 9.2 °F /  -12.7 °C 2.0 °F /  -16.7 °C 1001.9 in /  33924.3 hPa North 21.2 mph /  34.1 km/h 23.0 mph /  37 km/h 61 % 0.0 in /  0 mm
12:34 9.3 °F /  -12.6 °C 2.0 °F /  -16.7 °C 1001.9 in /  33924.3 hPa West 10.8 mph /  17.4 km/h 24.8 mph /  39.9 km/h 61 % 0.0 in /  0 mm
12:39 9.3 °F /  -12.6 °C 2.0 °F /  -16.7 °C 1001.9 in /  33924.3 hPa South 9.0 mph /  14.5 km/h 32.0 mph /  51.5 km/h 61 % 0.0 in /  0 mm
12:44 9.4 °F /  -12.6 °C 2.0 °F /  -16.7 °C 1001.9 in /  33924.3 hPa WNW 17.7 mph /  28.5 km/h 32.0 mph /  51.5 km/h 59 % 0.0 in /  0 mm
12:49 9.5 °F /  -12.5 °C 2.0 °F /  -16.7 °C 1001.9 in /  33924.3 hPa WSW 13.7 mph /  22 km/h 36.7 mph /  59.1 km/h 59 % 0.0 in /  0 mm
12:54 9.9 °F /  -12.3 °C 3.0 °F /  -16.1 °C 1001.9 in /  33924.3 hPa WNW 9.3 mph /  15 km/h 36.7 mph /  59.1 km/h 60 % 0.0 in /  0 mm
12:59 9.8 °F /  -12.3 °C 2.0 °F /  -16.7 °C 1001.9 in /  33924.3 hPa WSW 17.2 mph /  27.7 km/h 28.0 mph /  45.1 km/h 58 % 0.0 in /  0 mm
13:04 9.9 °F /  -12.3 °C 2.0 °F /  -16.7 °C 1001.9 in /  33924.3 hPa West 11.9 mph /  19.2 km/h 28.5 mph /  45.9 km/h 57 % 0.0 in /  0 mm
13:09 9.5 °F /  -12.5 °C 2.0 °F /  -16.7 °C 1001.9 in /  33924.3 hPa North 21.2 mph /  34.1 km/h 28.5 mph /  45.9 km/h 58 % 0.0 in /  0 mm
13:14 9.6 °F /  -12.4 °C 3.0 °F /  -16.1 °C 1001.9 in /  33924.3 hPa WNW 11.9 mph /  19.2 km/h 26.7 mph /  43 km/h 60 % 0.0 in /  0 mm
13:19 9.8 °F /  -12.3 °C 3.0 °F /  -16.1 °C 1001.9 in /  33924.3 hPa WNW 15.1 mph /  24.3 km/h 24.5 mph /  39.4 km/h 61 % 0.0 in /  0 mm
13:24 9.7 °F /  -12.4 °C 2.0 °F /  -16.7 °C 1001.9 in /  33924.3 hPa WNW 6.4 mph /  10.3 km/h 24.5 mph /  39.4 km/h 58 % 0.0 in /  0 mm
13:29 9.7 °F /  -12.4 °C 3.0 °F /  -16.1 °C 1001.9 in /  33924.3 hPa WNW 22.4 mph /  36 km/h 24.5 mph /  39.4 km/h 60 % 0.0 in /  0 mm
13:34 9.7 °F /  -12.4 °C 3.0 °F /  -16.1 °C 1001.9 in /  33924.3 hPa WNW 16.3 mph /  26.2 km/h 24.8 mph /  39.9 km/h 60 % 0.0 in /  0 mm
13:39 9.8 °F /  -12.3 °C 2.0 °F /  -16.7 °C 1001.9 in /  33924.3 hPa NNW 12.6 mph /  20.3 km/h 25.3 mph /  40.7 km/h 59 % 0.0 in /  0 mm
13:44 10.1 °F /  -12.2 °C 3.0 °F /  -16.1 °C 1001.9 in /  33924.3 hPa WNW 15.8 mph /  25.4 km/h 25.3 mph /  40.7 km/h 60 % 0.0 in /  0 mm
13:49 10.2 °F /  -12.1 °C 3.0 °F /  -16.1 °C 1001.9 in /  33924.3 hPa WSW 17.2 mph /  27.7 km/h 23.0 mph /  37 km/h 59 % 0.0 in /  0 mm
13:54 10.5 °F /  -11.9 °C 3.0 °F /  -16.1 °C 1001.9 in /  33924.3 hPa NW 11.9 mph /  19.2 km/h 23.0 mph /  37 km/h 61 % 0.0 in /  0 mm
13:59 10.4 °F /  -12 °C 3.0 °F /  -16.1 °C 1001.9 in /  33924.3 hPa West 16.9 mph /  27.2 km/h 27.7 mph /  44.6 km/h 59 % 0.0 in /  0 mm
14:05 10.6 °F /  -11.9 °C 3.0 °F /  -16.1 °C 1001.9 in /  33924.3 hPa West 10.1 mph /  16.3 km/h 27.7 mph /  44.6 km/h 59 % 0.0 in /  0 mm
14:10 10.4 °F /  -12 °C 3.0 °F /  -16.1 °C 1001.9 in /  33924.3 hPa West 28.5 mph /  45.9 km/h 34.6 mph /  55.7 km/h 58 % 0.0 in /  0 mm
14:15 10.2 °F /  -12.1 °C 3.0 °F /  -16.1 °C 1001.9 in /  33924.3 hPa West 28.0 mph /  45.1 km/h 34.6 mph /  55.7 km/h 59 % 0.0 in /  0 mm
14:20 10.0 °F /  -12.2 °C 2.0 °F /  -16.7 °C 1001.9 in /  33924.3 hPa West 17.2 mph /  27.7 km/h 36.4 mph /  58.6 km/h 58 % 0.0 in /  0 mm
14:25 9.9 °F /  -12.3 °C 3.0 °F /  -16.1 °C 1001.9 in /  33924.3 hPa West 14.0 mph /  22.5 km/h 36.4 mph /  58.6 km/h 59 % 0.0 in /  0 mm
14:30 9.9 °F /  -12.3 °C 3.0 °F /  -16.1 °C 1001.9 in /  33924.3 hPa NNW 20.6 mph /  33.2 km/h 27.7 mph /  44.6 km/h 59 % 0.0 in /  0 mm
14:35 9.9 °F /  -12.3 °C 3.0 °F /  -16.1 °C 1001.9 in /  33924.3 hPa West 14.0 mph /  22.5 km/h 24.8 mph /  39.9 km/h 59 % 0.0 in /  0 mm
14:40 9.9 °F /  -12.3 °C 3.0 °F /  -16.1 °C 1001.9 in /  33924.3 hPa West 9.3 mph /  15 km/h 24.8 mph /  39.9 km/h 59 % 0.0 in /  0 mm
14:45 9.9 °F /  -12.3 °C 3.0 °F /  -16.1 °C 1001.9 in /  33924.3 hPa WSW 17.2 mph /  27.7 km/h 20.6 mph /  33.2 km/h 59 % 0.0 in /  0 mm
14:50 9.9 °F /  -12.3 °C 3.0 °F /  -16.1 °C 1001.9 in /  33924.3 hPa West 12.6 mph /  20.3 km/h 24.5 mph /  39.4 km/h 59 % 0.0 in /  0 mm
14:55 9.9 °F /  -12.3 °C 3.0 °F /  -16.1 °C 1001.9 in /  33924.3 hPa WSW 22.4 mph /  36 km/h 24.5 mph /  39.4 km/h 59 % 0.0 in /  0 mm
15:00 9.9 °F /  -12.3 °C 3.0 °F /  -16.1 °C 1001.9 in /  33924.3 hPa WSW 12.6 mph /  20.3 km/h 28.5 mph /  45.9 km/h 59 % 0.0 in /  0 mm
15:05 9.9 °F /  -12.3 °C 3.0 °F /  -16.1 °C 1001.9 in /  33924.3 hPa West 11.9 mph /  19.2 km/h 28.5 mph /  45.9 km/h 59 % 0.0 in /  0 mm
15:10 9.9 °F /  -12.3 °C 3.0 °F /  -16.1 °C 1001.9 in /  33924.3 hPa West 9.3 mph /  15 km/h 20.9 mph /  33.6 km/h 59 % 0.0 in /  0 mm
15:15 8.9 °F /  -12.8 °C 3.0 °F /  -16.1 °C 1001.9 in /  33924.3 hPa West 9.7 mph /  15.6 km/h 20.9 mph /  33.6 km/h 64 % 0.0 in /  0 mm
15:20 8.9 °F /  -12.8 °C 3.0 °F /  -16.1 °C 1001.9 in /  33924.3 hPa West 8.7 mph /  14 km/h 16.6 mph /  26.7 km/h 64 % 0.0 in /  0 mm
15:25 8.9 °F /  -12.8 °C 3.0 °F /  -16.1 °C 1001.9 in /  33924.3 hPa WSW 11.9 mph /  19.2 km/h 19.1 mph /  30.7 km/h 64 % 0.0 in /  0 mm
15:30 8.9 °F /  -12.8 °C 3.0 °F /  -16.1 °C 1001.9 in /  33924.3 hPa West 24.5 mph /  39.4 km/h 25.6 mph /  41.2 km/h 67 % 0.0 in /  0 mm
15:36 8.9 °F /  -12.8 °C 3.0 °F /  -16.1 °C 1001.9 in /  33924.3 hPa West 14.0 mph /  22.5 km/h 25.6 mph /  41.2 km/h 67 % 0.0 in /  0 mm
15:41 8.7 °F /  -12.9 °C 3.0 °F /  -16.1 °C 1001.9 in /  33924.3 hPa WSW 19.5 mph /  31.4 km/h 24.5 mph /  39.4 km/h 67 % 0.0 in /  0 mm
15:46 8.7 °F /  -12.9 °C 3.0 °F /  -16.1 °C 1001.9 in /  33924.3 hPa West 14.0 mph /  22.5 km/h 24.8 mph /  39.9 km/h 67 % 0.0 in /  0 mm
15:51 8.7 °F /  -12.9 °C 3.0 °F /  -16.1 °C 1001.9 in /  33924.3 hPa WNW 9.3 mph /  15 km/h 24.8 mph /  39.9 km/h 67 % 0.0 in /  0 mm
15:56 8.5 °F /  -13.1 °C 3.0 °F /  -16.1 °C 1001.9 in /  33924.3 hPa WSW 20.9 mph /  33.6 km/h 20.9 mph /  33.6 km/h 68 % 0.0 in /  0 mm
16:01 8.5 °F /  -13.1 °C 3.0 °F /  -16.1 °C 1001.9 in /  33924.3 hPa West 5.8 mph /  9.3 km/h 20.9 mph /  33.6 km/h 68 % 0.0 in /  0 mm
16:06 8.5 °F /  -13.1 °C 3.0 °F /  -16.1 °C 1001.9 in /  33924.3 hPa West 14.0 mph /  22.5 km/h 19.1 mph /  30.7 km/h 68 % 0.0 in /  0 mm
16:11 8.5 °F /  -13.1 °C 3.0 °F /  -16.1 °C 1001.9 in /  33924.3 hPa West 3.2 mph /  5.1 km/h 14.0 mph /  22.5 km/h 68 % 0.0 in /  0 mm
16:16 8.5 °F /  -13.1 °C 3.0 °F /  -16.1 °C 1001.9 in /  33924.3 hPa Calm   13.7 mph /  22 km/h 68 % 0.0 in /  0 mm
16:21 8.2 °F /  -13.2 °C 3.0 °F /  -16.1 °C 1001.9 in /  33924.3 hPa West 4.3 mph /  6.9 km/h 11.6 mph /  18.7 km/h 71 % 0.0 in /  0 mm
16:26 8.2 °F /  -13.2 °C 3.0 °F /  -16.1 °C 1001.9 in /  33924.3 hPa West 4.7 mph /  7.6 km/h 12.2 mph /  19.6 km/h 71 % 0.0 in /  0 mm
16:31 8.2 °F /  -13.2 °C 3.0 °F /  -16.1 °C 1001.9 in /  33924.3 hPa WSW 8.7 mph /  14 km/h 12.2 mph /  19.6 km/h 71 % 0.0 in /  0 mm
16:36 7.9 °F /  -13.4 °C 3.0 °F /  -16.1 °C 1001.9 in /  33924.3 hPa West 6.4 mph /  10.3 km/h 12.2 mph /  19.6 km/h 73 % 0.0 in /  0 mm
16:41 7.9 °F /  -13.4 °C 3.0 °F /  -16.1 °C 1001.9 in /  33924.3 hPa West 4.3 mph /  6.9 km/h 11.9 mph /  19.2 km/h 73 % 0.0 in /  0 mm
16:46 7.7 °F /  -13.5 °C 3.0 °F /  -16.1 °C 1001.9 in /  33924.3 hPa Calm   11.9 mph /  19.2 km/h 73 % 0.0 in /  0 mm
16:51 7.5 °F /  -13.6 °C 3.0 °F /  -16.1 °C 1001.9 in /  33924.3 hPa West 9.3 mph /  15 km/h 9.3 mph /  15 km/h 74 % 0.0 in /  0 mm
16:56 7.3 °F /  -13.7 °C 3.0 °F /  -16.1 °C 1001.9 in /  33924.3 hPa West 6.1 mph /  9.8 km/h 9.7 mph /  15.6 km/h 74 % 0.0 in /  0 mm
17:02 7.1 °F /  -13.8 °C 3.0 °F /  -16.1 °C 1001.9 in /  33924.3 hPa Calm   9.7 mph /  15.6 km/h 74 % 0.0 in /  0 mm
17:07 7.0 °F /  -13.9 °C 3.0 °F /  -16.1 °C 1001.9 in /  33924.3 hPa West 4.0 mph /  6.4 km/h 13.7 mph /  22 km/h 75 % 0.0 in /  0 mm
17:12 7.0 °F /  -13.9 °C 3.0 °F /  -16.1 °C 1001.9 in /  33924.3 hPa WSW 4.3 mph /  6.9 km/h 13.7 mph /  22 km/h 75 % 0.0 in /  0 mm
17:17 7.0 °F /  -13.9 °C 3.0 °F /  -16.1 °C 1001.9 in /  33924.3 hPa West 7.9 mph /  12.7 km/h 10.5 mph /  16.9 km/h 75 % 0.0 in /  0 mm
17:22 7.1 °F /  -13.8 °C 3.0 °F /  -16.1 °C 1001.9 in /  33924.3 hPa West 7.6 mph /  12.2 km/h 11.6 mph /  18.7 km/h 77 % 0.0 in /  0 mm
17:27 7.1 °F /  -13.8 °C 3.0 °F /  -16.1 °C 1001.9 in /  33924.3 hPa West 5.8 mph /  9.3 km/h 11.6 mph /  18.7 km/h 77 % 0.0 in /  0 mm
17:32 7.0 °F /  -13.9 °C 3.0 °F /  -16.1 °C 1001.9 in /  33924.3 hPa WSW 10.5 mph /  16.9 km/h 11.6 mph /  18.7 km/h 77 % 0.0 in /  0 mm
17:37 0.0 °F /  -17.8 °C 3.0 °F /  -16.1 °C 0.0 in /  0 hPa Calm     0 % 0.0 in /  0 mm
17:42 0.0 °F /  -17.8 °C 3.0 °F /  -16.1 °C 1001.9 in /  33924.3 hPa Calm     0 % 0.0 in /  0 mm
17:47 0.0 °F /  -17.8 °C 3.0 °F /  -16.1 °C 1001.9 in /  33924.3 hPa WSW 7.9 mph /  12.7 km/h 9.0 mph /  14.5 km/h 0 % 0.0 in /  0 mm
17:52 6.6 °F /  -14.1 °C 4.0 °F /  -15.6 °C 1001.9 in /  33924.3 hPa West 9.0 mph /  14.5 km/h 10.5 mph /  16.9 km/h 80 % 0.0 in /  0 mm
17:57 6.6 °F /  -14.1 °C 4.0 °F /  -15.6 °C 1001.9 in /  33924.3 hPa WSW 10.5 mph /  16.9 km/h 12.6 mph /  20.3 km/h 81 % 0.0 in /  0 mm
18:02 6.6 °F /  -14.1 °C 4.0 °F /  -15.6 °C 1001.9 in /  33924.3 hPa WSW 9.3 mph /  15 km/h 12.6 mph /  20.3 km/h 82 % 0.0 in /  0 mm
18:08 6.5 °F /  -14.2 °C 4.0 °F /  -15.6 °C 1001.9 in /  33924.3 hPa WSW 7.9 mph /  12.7 km/h 10.5 mph /  16.9 km/h 83 % 0.0 in /  0 mm
18:12 6.5 °F /  -14.2 °C 4.0 °F /  -15.6 °C 1001.9 in /  33924.3 hPa WSW 8.7 mph /  14 km/h 10.5 mph /  16.9 km/h 83 % 0.0 in /  0 mm
18:18 6.5 °F /  -14.2 °C 4.0 °F /  -15.6 °C 1001.9 in /  33924.3 hPa WSW 10.1 mph /  16.3 km/h 12.6 mph /  20.3 km/h 83 % 0.0 in /  0 mm
18:23 6.5 °F /  -14.2 °C 4.0 °F /  -15.6 °C 1001.9 in /  33924.3 hPa WSW 8.7 mph /  14 km/h 12.6 mph /  20.3 km/h 83 % 0.0 in /  0 mm
18:28 6.5 °F /  -14.2 °C 4.0 °F /  -15.6 °C 1001.9 in /  33924.3 hPa WSW 9.7 mph /  15.6 km/h 10.5 mph /  16.9 km/h 83 % 0.0 in /  0 mm
18:33 6.5 °F /  -14.2 °C 4.0 °F /  -15.6 °C 1001.9 in /  33924.3 hPa WSW 10.1 mph /  16.3 km/h 10.5 mph /  16.9 km/h 83 % 0.0 in /  0 mm
18:38 6.6 °F /  -14.1 °C 5.0 °F /  -15 °C 1001.9 in /  33924.3 hPa WSW 9.3 mph /  15 km/h 11.6 mph /  18.7 km/h 85 % 0.0 in /  0 mm
18:43 6.7 °F /  -14.1 °C 5.0 °F /  -15 °C 1001.9 in /  33924.3 hPa WSW 7.9 mph /  12.7 km/h 12.6 mph /  20.3 km/h 86 % 0.0 in /  0 mm
18:48 6.8 °F /  -14 °C 5.0 °F /  -15 °C 1001.9 in /  33924.3 hPa WSW 14.0 mph /  22.5 km/h 14.0 mph /  22.5 km/h 86 % 0.0 in /  0 mm
18:58 7.0 °F /  -13.9 °C 5.0 °F /  -15 °C 1001.9 in /  33924.3 hPa West 10.1 mph /  16.3 km/h 14.0 mph /  22.5 km/h 87 % 0.0 in /  0 mm
19:03 7.0 °F /  -13.9 °C 5.0 °F /  -15 °C 1001.9 in /  33924.3 hPa WSW 12.6 mph /  20.3 km/h 14.0 mph /  22.5 km/h 86 % 0.0 in /  0 mm
19:08 7.0 °F /  -13.9 °C 5.0 °F /  -15 °C 1001.9 in /  33924.3 hPa WSW 10.1 mph /  16.3 km/h 15.8 mph /  25.4 km/h 86 % 0.0 in /  0 mm
19:13 7.0 °F /  -13.9 °C 5.0 °F /  -15 °C 1001.9 in /  33924.3 hPa West 11.6 mph /  18.7 km/h 15.8 mph /  25.4 km/h 86 % 0.0 in /  0 mm
19:18 7.0 °F /  -13.9 °C 5.0 °F /  -15 °C 1001.9 in /  33924.3 hPa WSW 12.6 mph /  20.3 km/h 15.8 mph /  25.4 km/h 86 % 0.0 in /  0 mm
19:23 7.0 °F /  -13.9 °C 5.0 °F /  -15 °C 1001.9 in /  33924.3 hPa WSW 12.2 mph /  19.6 km/h 14.3 mph /  23 km/h 86 % 0.0 in /  0 mm
19:28 7.0 °F /  -13.9 °C 5.0 °F /  -15 °C 1001.9 in /  33924.3 hPa WSW 10.1 mph /  16.3 km/h 14.0 mph /  22.5 km/h 86 % 0.0 in /  0 mm
19:33 6.6 °F /  -14.1 °C 5.0 °F /  -15 °C 1001.9 in /  33924.3 hPa WSW 10.5 mph /  16.9 km/h 14.0 mph /  22.5 km/h 87 % 0.0 in /  0 mm
19:38 6.5 °F /  -14.2 °C 5.0 °F /  -15 °C 1001.9 in /  33924.3 hPa WSW 10.1 mph /  16.3 km/h 15.8 mph /  25.4 km/h 87 % 0.0 in /  0 mm
19:43 6.4 °F /  -14.2 °C 5.0 °F /  -15 °C 1001.9 in /  33924.3 hPa WSW 10.5 mph /  16.9 km/h 15.8 mph /  25.4 km/h 87 % 0.0 in /  0 mm
19:48 6.3 °F /  -14.3 °C 5.0 °F /  -15 °C 1001.9 in /  33924.3 hPa WSW 10.1 mph /  16.3 km/h 16.6 mph /  26.7 km/h 88 % 0.0 in /  0 mm
19:53 6.4 °F /  -14.2 °C 5.0 °F /  -15 °C 1001.9 in /  33924.3 hPa West 16.3 mph /  26.2 km/h 17.7 mph /  28.5 km/h 89 % 0.0 in /  0 mm
19:58 6.4 °F /  -14.2 °C 5.0 °F /  -15 °C 1001.9 in /  33924.3 hPa WSW 9.7 mph /  15.6 km/h 17.7 mph /  28.5 km/h 90 % 0.0 in /  0 mm
20:03 6.4 °F /  -14.2 °C 5.0 °F /  -15 °C 1001.9 in /  33924.3 hPa WSW 6.9 mph /  11.1 km/h 17.7 mph /  28.5 km/h 90 % 0.0 in /  0 mm
20:08 6.4 °F /  -14.2 °C 5.0 °F /  -15 °C 1001.9 in /  33924.3 hPa West 9.7 mph /  15.6 km/h 13.7 mph /  22 km/h 90 % 0.0 in /  0 mm
20:13 6.4 °F /  -14.2 °C 5.0 °F /  -15 °C 1001.9 in /  33924.3 hPa West 20.9 mph /  33.6 km/h 20.9 mph /  33.6 km/h 91 % 0.0 in /  0 mm
20:19 6.4 °F /  -14.2 °C 5.0 °F /  -15 °C 1001.9 in /  33924.3 hPa WSW 11.6 mph /  18.7 km/h 20.9 mph /  33.6 km/h 91 % 0.0 in /  0 mm
20:24 6.5 °F /  -14.2 °C 6.0 °F /  -14.4 °C 1001.9 in /  33924.3 hPa West 12.2 mph /  19.6 km/h 19.5 mph /  31.4 km/h 91 % 0.0 in /  0 mm
20:29 6.5 °F /  -14.2 °C 5.0 °F /  -15 °C 1001.9 in /  33924.3 hPa SW 11.9 mph /  19.2 km/h 19.5 mph /  31.4 km/h 90 % 0.0 in /  0 mm
20:34 6.5 °F /  -14.2 °C 5.0 °F /  -15 °C 1001.9 in /  33924.3 hPa West 12.2 mph /  19.6 km/h 16.9 mph /  27.2 km/h 89 % 0.0 in /  0 mm
20:39 6.4 °F /  -14.2 °C 5.0 °F /  -15 °C 1001.9 in /  33924.3 hPa West 14.3 mph /  23 km/h 16.9 mph /  27.2 km/h 88 % 0.0 in /  0 mm
20:44 6.4 °F /  -14.2 °C 5.0 °F /  -15 °C 1002.9 in /  33958.2 hPa West 17.2 mph /  27.7 km/h 21.2 mph /  34.1 km/h 88 % 0.0 in /  0 mm
20:49 6.4 °F /  -14.2 °C 5.0 °F /  -15 °C 1002.9 in /  33958.2 hPa West 13.7 mph /  22 km/h 21.2 mph /  34.1 km/h 87 % 0.0 in /  0 mm
20:54 6.4 °F /  -14.2 °C 5.0 °F /  -15 °C 1002.9 in /  33958.2 hPa WNW 6.1 mph /  9.8 km/h 19.8 mph /  31.9 km/h 87 % 0.0 in /  0 mm
20:59 6.5 °F /  -14.2 °C 5.0 °F /  -15 °C 1002.9 in /  33958.2 hPa WSW 9.7 mph /  15.6 km/h 19.8 mph /  31.9 km/h 88 % 0.0 in /  0 mm
21:04 6.5 °F /  -14.2 °C 5.0 °F /  -15 °C 1002.9 in /  33958.2 hPa West 13.7 mph /  22 km/h 19.8 mph /  31.9 km/h 87 % 0.0 in /  0 mm
21:09 6.5 °F /  -14.2 °C 5.0 °F /  -15 °C 1002.9 in /  33958.2 hPa West 6.1 mph /  9.8 km/h 19.8 mph /  31.9 km/h 87 % 0.0 in /  0 mm
21:14 6.4 °F /  -14.2 °C 5.0 °F /  -15 °C 1002.9 in /  33958.2 hPa West 9.7 mph /  15.6 km/h 14.0 mph /  22.5 km/h 87 % 0.0 in /  0 mm
21:19 6.3 °F /  -14.3 °C 5.0 °F /  -15 °C 1002.9 in /  33958.2 hPa West 6.9 mph /  11.1 km/h 13.7 mph /  22 km/h 87 % 0.0 in /  0 mm
21:24 6.1 °F /  -14.4 °C 4.0 °F /  -15.6 °C 1002.9 in /  33958.2 hPa West 9.7 mph /  15.6 km/h 13.7 mph /  22 km/h 86 % 0.0 in /  0 mm
21:29 5.9 °F /  -14.5 °C 4.0 °F /  -15.6 °C 1002.9 in /  33958.2 hPa West 3.5 mph /  5.6 km/h 10.1 mph /  16.3 km/h 87 % 0.0 in /  0 mm
21:34 5.8 °F /  -14.6 °C 4.0 °F /  -15.6 °C 1002.9 in /  33958.2 hPa Calm   6.9 mph /  11.1 km/h 87 % 0.0 in /  0 mm
21:39 5.8 °F /  -14.6 °C 4.0 °F /  -15.6 °C 1002.9 in /  33958.2 hPa WNW 9.3 mph /  15 km/h 10.1 mph /  16.3 km/h 87 % 0.0 in /  0 mm
21:45 5.8 °F /  -14.6 °C 4.0 °F /  -15.6 °C 1002.9 in /  33958.2 hPa Calm   10.1 mph /  16.3 km/h 87 % 0.0 in /  0 mm
21:50 5.8 °F /  -14.6 °C 4.0 °F /  -15.6 °C 1002.9 in /  33958.2 hPa NNW 5.5 mph /  8.9 km/h 12.2 mph /  19.6 km/h 87 % 0.0 in /  0 mm
21:55 5.8 °F /  -14.6 °C 4.0 °F /  -15.6 °C 1002.9 in /  33958.2 hPa WNW 2.1 mph /  3.4 km/h 13.0 mph /  20.9 km/h 87 % 0.0 in /  0 mm
22:00 5.7 °F /  -14.6 °C 4.0 °F /  -15.6 °C 1002.9 in /  33958.2 hPa Calm   13.0 mph /  20.9 km/h 87 % 0.0 in /  0 mm
22:05 5.6 °F /  -14.7 °C 4.0 °F /  -15.6 °C 1002.9 in /  33958.2 hPa Calm   10.1 mph /  16.3 km/h 87 % 0.0 in /  0 mm
22:10 5.5 °F /  -14.7 °C 4.0 °F /  -15.6 °C 1002.9 in /  33958.2 hPa West 4.3 mph /  6.9 km/h 10.1 mph /  16.3 km/h 87 % 0.0 in /  0 mm
22:15 5.4 °F /  -14.8 °C 4.0 °F /  -15.6 °C 1002.9 in /  33958.2 hPa West 3.5 mph /  5.6 km/h 10.1 mph /  16.3 km/h 87 % 0.0 in /  0 mm
22:20 5.3 °F /  -14.8 °C 4.0 °F /  -15.6 °C 1002.9 in /  33958.2 hPa West 2.6 mph /  4.2 km/h 13.0 mph /  20.9 km/h 87 % 0.0 in /  0 mm
22:25 5.2 °F /  -14.9 °C 3.0 °F /  -16.1 °C 1002.9 in /  33958.2 hPa WNW 3.2 mph /  5.1 km/h 13.0 mph /  20.9 km/h 87 % 0.0 in /  0 mm
22:30 5.2 °F /  -14.9 °C 3.0 °F /  -16.1 °C 1002.9 in /  33958.2 hPa West 12.6 mph /  20.3 km/h 12.6 mph /  20.3 km/h 87 % 0.0 in /  0 mm
22:35 5.1 °F /  -14.9 °C 3.0 °F /  -16.1 °C 1002.9 in /  33958.2 hPa WNW 7.9 mph /  12.7 km/h 12.6 mph /  20.3 km/h 88 % 0.0 in /  0 mm
22:40 5.0 °F /  -15 °C 3.0 °F /  -16.1 °C 1002.9 in /  33958.2 hPa West 9.3 mph /  15 km/h 12.2 mph /  19.6 km/h 88 % 0.0 in /  0 mm
22:45 4.9 °F /  -15.1 °C 3.0 °F /  -16.1 °C 1002.9 in /  33958.2 hPa West 6.4 mph /  10.3 km/h 12.6 mph /  20.3 km/h 88 % 0.0 in /  0 mm
22:51 4.8 °F /  -15.1 °C 3.0 °F /  -16.1 °C 1002.9 in /  33958.2 hPa WSW 6.9 mph /  11.1 km/h 12.6 mph /  20.3 km/h 89 % 0.0 in /  0 mm
22:56 4.8 °F /  -15.1 °C 3.0 °F /  -16.1 °C 1002.9 in /  33958.2 hPa West 4.7 mph /  7.6 km/h 10.5 mph /  16.9 km/h 89 % 0.0 in /  0 mm
23:01 4.8 °F /  -15.1 °C 3.0 °F /  -16.1 °C 1003.9 in /  33992.1 hPa West 4.0 mph /  6.4 km/h 13.0 mph /  20.9 km/h 89 % 0.0 in /  0 mm
23:06 4.8 °F /  -15.1 °C 3.0 °F /  -16.1 °C 1003.9 in /  33992.1 hPa West 12.2 mph /  19.6 km/h 14.8 mph /  23.8 km/h 90 % 0.0 in /  0 mm
23:11 4.7 °F /  -15.2 °C 3.0 °F /  -16.1 °C 1003.9 in /  33992.1 hPa West 8.7 mph /  14 km/h 14.8 mph /  23.8 km/h 90 % 0.0 in /  0 mm
23:16 4.7 °F /  -15.2 °C 3.0 °F /  -16.1 °C 1003.9 in /  33992.1 hPa WSW 9.3 mph /  15 km/h 11.9 mph /  19.2 km/h 90 % 0.0 in /  0 mm
23:21 4.6 °F /  -15.2 °C 3.0 °F /  -16.1 °C 1003.9 in /  33992.1 hPa West 13.0 mph /  20.9 km/h 13.0 mph /  20.9 km/h 90 % 0.0 in /  0 mm
23:26 4.5 °F /  -15.3 °C 3.0 °F /  -16.1 °C 1003.9 in /  33992.1 hPa WSW 11.1 mph /  17.9 km/h 13.0 mph /  20.9 km/h 90 % 0.0 in /  0 mm
23:31 4.5 °F /  -15.3 °C 3.0 °F /  -16.1 °C 1005.0 in /  34029.3 hPa West 9.7 mph /  15.6 km/h 13.0 mph /  20.9 km/h 91 % 0.0 in /  0 mm
23:36 4.5 °F /  -15.3 °C 3.0 °F /  -16.1 °C 1005.0 in /  34029.3 hPa WSW 11.6 mph /  18.7 km/h 13.7 mph /  22 km/h 92 % 0.0 in /  0 mm
23:41 4.5 °F /  -15.3 °C 3.0 °F /  -16.1 °C 1005.0 in /  34029.3 hPa West 7.9 mph /  12.7 km/h 13.7 mph /  22 km/h 92 % 0.0 in /  0 mm
23:46 4.6 °F /  -15.2 °C 4.0 °F /  -15.6 °C 1005.0 in /  34029.3 hPa West 9.3 mph /  15 km/h 13.0 mph /  20.9 km/h 93 % 0.0 in /  0 mm
23:51 4.5 °F /  -15.3 °C 4.0 °F /  -15.6 °C 1005.0 in /  34029.3 hPa West 9.7 mph /  15.6 km/h 13.0 mph /  20.9 km/h 93 % 0.0 in /  0 mm
23:56 4.5 °F /  -15.3 °C 4.0 °F /  -15.6 °C 1005.0 in /  34029.3 hPa West 10.1 mph /  16.3 km/h 13.7 mph /  22 km/h 93 % 0.0 in /  0 mm
Le Gheer Warneton
Courtoisie de Weather Underground - 2.25 mb

Mise a jour : 18/02/2018 06:15:11
Généré par Cumulus 1.9.4 (1099)